sensor_id;sensor_type;location;lat;lon;timestamp;P1;durP1;ratioP1;P2;durP2;ratioP2
82513;SDS011;72858;52.130;5.584;2024-03-08T20:45:44;48.42;;;30.20;;
82513;SDS011;72858;52.130;5.584;2024-03-08T20:48:10;46.47;;;28.40;;
82513;SDS011;72858;52.130;5.584;2024-03-08T20:50:35;44.00;;;29.85;;
82513;SDS011;72858;52.130;5.584;2024-03-08T20:53:05;45.63;;;29.42;;
82513;SDS011;72858;52.130;5.584;2024-03-08T20:55:33;45.13;;;28.45;;
82513;SDS011;72858;52.130;5.584;2024-03-08T20:57:58;44.63;;;28.58;;
82513;SDS011;72858;52.130;5.584;2024-03-08T21:00:23;41.93;;;27.23;;
82513;SDS011;72858;52.130;5.584;2024-03-08T21:03:04;45.00;;;27.40;;
82513;SDS011;72858;52.130;5.584;2024-03-08T21:05:30;45.25;;;28.05;;
82513;SDS011;72858;52.130;5.584;2024-03-08T21:07:56;46.00;;;29.02;;
82513;SDS011;72858;52.130;5.584;2024-03-08T21:10:21;44.78;;;27.75;;
82513;SDS011;72858;52.130;5.584;2024-03-08T21:12:49;45.90;;;29.38;;
82513;SDS011;72858;52.130;5.584;2024-03-08T21:15:19;46.55;;;28.40;;
82513;SDS011;72858;52.130;5.584;2024-03-08T21:17:45;46.40;;;29.25;;
82513;SDS011;72858;52.130;5.584;2024-03-08T21:20:11;44.63;;;29.13;;
82513;SDS011;72858;52.130;5.584;2024-03-08T21:22:36;44.33;;;28.55;;
82513;SDS011;72858;52.130;5.584;2024-03-08T21:25:01;41.13;;;27.80;;
82513;SDS011;72858;52.130;5.584;2024-03-08T21:27:29;44.08;;;29.35;;
82513;SDS011;72858;52.130;5.584;2024-03-08T21:29:54;46.42;;;29.83;;
82513;SDS011;72858;52.130;5.584;2024-03-08T21:32:21;48.30;;;30.65;;
82513;SDS011;72858;52.130;5.584;2024-03-08T21:34:46;49.50;;;31.33;;
82513;SDS011;72858;52.130;5.584;2024-03-08T21:37:11;45.22;;;29.58;;
82513;SDS011;72858;52.130;5.584;2024-03-08T21:39:37;43.40;;;29.17;;
82513;SDS011;72858;52.130;5.584;2024-03-08T21:42:02;44.70;;;29.60;;
82513;SDS011;72858;52.130;5.584;2024-03-08T21:44:28;46.42;;;29.15;;
82513;SDS011;72858;52.130;5.584;2024-03-08T21:46:54;43.30;;;28.15;;
82513;SDS011;72858;52.130;5.584;2024-03-08T21:49:19;47.03;;;30.23;;
82513;SDS011;72858;52.130;5.584;2024-03-08T21:51:44;47.90;;;29.67;;
82513;SDS011;72858;52.130;5.584;2024-03-08T21:54:14;47.42;;;28.73;;
82513;SDS011;72858;52.130;5.584;2024-03-08T21:56:39;40.63;;;27.42;;
82513;SDS011;72858;52.130;5.584;2024-03-08T21:59:04;44.60;;;28.70;;
82513;SDS011;72858;52.130;5.584;2024-03-08T22:01:30;44.47;;;28.42;;
82513;SDS011;72858;52.130;5.584;2024-03-08T22:03:57;43.10;;;27.77;;
82513;SDS011;72858;52.130;5.584;2024-03-08T22:06:23;49.30;;;30.83;;
82513;SDS011;72858;52.130;5.584;2024-03-08T22:08:49;44.08;;;28.20;;
82513;SDS011;72858;52.130;5.584;2024-03-08T22:11:15;48.78;;;29.98;;
82513;SDS011;72858;52.130;5.584;2024-03-08T22:13:40;42.90;;;27.47;;
82513;SDS011;72858;52.130;5.584;2024-03-08T22:16:06;45.53;;;29.52;;
82513;SDS011;72858;52.130;5.584;2024-03-08T22:18:34;47.60;;;30.52;;
82513;SDS011;72858;52.130;5.584;2024-03-08T22:21:02;49.38;;;29.67;;
82513;SDS011;72858;52.130;5.584;2024-03-08T22:23:28;47.25;;;30.30;;
82513;SDS011;72858;52.130;5.584;2024-03-08T22:25:53;50.28;;;30.65;;
82513;SDS011;72858;52.130;5.584;2024-03-08T22:28:18;47.05;;;29.92;;
82513;SDS011;72858;52.130;5.584;2024-03-08T22:30:50;45.75;;;29.25;;
82513;SDS011;72858;52.130;5.584;2024-03-08T22:33:15;49.33;;;30.05;;
82513;SDS011;72858;52.130;5.584;2024-03-08T22:35:40;46.60;;;29.70;;
82513;SDS011;72858;52.130;5.584;2024-03-08T22:38:06;51.10;;;31.30;;
82513;SDS011;72858;52.130;5.584;2024-03-08T22:40:34;50.05;;;30.30;;
82513;SDS011;72858;52.130;5.584;2024-03-08T22:42:59;51.13;;;31.08;;
82513;SDS011;72858;52.130;5.584;2024-03-08T22:45:24;48.95;;;31.20;;
82513;SDS011;72858;52.130;5.584;2024-03-08T22:47:52;48.15;;;30.52;;
82513;SDS011;72858;52.130;5.584;2024-03-08T22:50:17;47.70;;;30.00;;
82513;SDS011;72858;52.130;5.584;2024-03-08T22:52:43;55.67;;;30.90;;
82513;SDS011;72858;52.130;5.584;2024-03-08T22:55:11;50.33;;;30.80;;
82513;SDS011;72858;52.130;5.584;2024-03-08T22:57:37;48.58;;;31.10;;
82513;SDS011;72858;52.130;5.584;2024-03-08T23:00:04;51.35;;;32.25;;
82513;SDS011;72858;52.130;5.584;2024-03-08T23:02:40;53.97;;;32.30;;
82513;SDS011;72858;52.130;5.584;2024-03-08T23:05:06;51.92;;;31.77;;
82513;SDS011;72858;52.130;5.584;2024-03-08T23:07:31;49.00;;;31.23;;
82513;SDS011;72858;52.130;5.584;2024-03-08T23:09:56;50.53;;;31.73;;
82513;SDS011;72858;52.130;5.584;2024-03-08T23:12:23;51.13;;;32.17;;
82513;SDS011;72858;52.130;5.584;2024-03-08T23:14:48;48.00;;;30.37;;
82513;SDS011;72858;52.130;5.584;2024-03-08T23:17:14;53.08;;;32.50;;
82513;SDS011;72858;52.130;5.584;2024-03-08T23:19:40;52.70;;;33.47;;
82513;SDS011;72858;52.130;5.584;2024-03-08T23:22:06;56.17;;;34.33;;
82513;SDS011;72858;52.130;5.584;2024-03-08T23:24:35;56.55;;;31.45;;
82513;SDS011;72858;52.130;5.584;2024-03-08T23:27:00;57.83;;;34.33;;
82513;SDS011;72858;52.130;5.584;2024-03-08T23:29:26;53.53;;;33.53;;
82513;SDS011;72858;52.130;5.584;2024-03-08T23:31:51;56.37;;;34.23;;
82513;SDS011;72858;52.130;5.584;2024-03-08T23:34:16;54.57;;;33.30;;
82513;SDS011;72858;52.130;5.584;2024-03-08T23:36:41;57.77;;;34.70;;
82513;SDS011;72858;52.130;5.584;2024-03-08T23:39:06;57.20;;;34.63;;
82513;SDS011;72858;52.130;5.584;2024-03-08T23:41:36;55.00;;;32.72;;
82513;SDS011;72858;52.130;5.584;2024-03-08T23:44:05;53.15;;;33.15;;
82513;SDS011;72858;52.130;5.584;2024-03-08T23:46:31;53.15;;;32.45;;
82513;SDS011;72858;52.130;5.584;2024-03-08T23:48:57;54.90;;;33.58;;
82513;SDS011;72858;52.130;5.584;2024-03-08T23:51:22;56.17;;;32.97;;
82513;SDS011;72858;52.130;5.584;2024-03-08T23:53:49;54.40;;;34.25;;
82513;SDS011;72858;52.130;5.584;2024-03-08T23:56:14;54.40;;;33.87;;
82513;SDS011;72858;52.130;5.584;2024-03-08T23:58:39;51.67;;;31.73;;
